Latest Coastal Weather Observations for Kingscote

IDS60701

Issued at 9:21 am CST Saturday 25 June 2016 (issued every 10 minutes, with the page automatically refreshed every 10 minutes)

About coastal observations | Map of coastal stations | Coastal observations for SA | Marine services | Other Formats
Station Details ID: 022841 Name: KINGSCOTE AERO Lat: -35.71 Lon: 137.52 Height: 6.23 m
Data from the previous 72 hours. | See also: Recent months at Kingscote
Date/Time
CST
Temp
°C
Wind Pressure Rain since
9am
mm
Weather Cloud Vis
km
Sea
Height
m
Swell
Dir  Spd
kts
Gust
kts
hPa Trend Height
m
Period
s
Dir
25/09:00am 4.0 CALM 0 0 1024.1 - 0.6 - Cloudy 10 - - - -
25/08:30am 2.0 CALM 0 0 1024.1 - 0.6 - Partly cloudy 10 - - - -
25/08:00am 0.6 CALM 0 0 1024.0 - 0.6 - Partly cloudy 10 - - - -
25/07:30am 0.6 CALM 0 0 1023.9 - 0.6 - - 10 - - - -
25/07:00am 0.7 CALM 0 0 1023.6 - 0.6 - - 10 - - - -
25/06:30am 0.8 CALM 0 0 1023.4 - 0.6 - - 10 - - - -
25/06:00am 0.9 CALM 0 0 1023.3 - 0.6 - - 10 - - - -
25/05:30am 1.2 SW 1 3 1023.2 - 0.6 - - 10 - - - -
25/05:00am 1.0 W 3 5 1023.1 - 0.6 - - 10 - - - -
25/04:30am 1.3 W 4 5 1023.1 - 0.6 - - 10 - - - -
25/04:00am 1.9 SSW 3 4 1023.1 - 0.6 - - 10 - - - -
25/03:30am 2.4 SW 3 4 1023.1 - 0.6 - - 10 - - - -
25/03:00am 2.8 WNW 4 5 1023.0 - 0.6 - - 10 - - - -
25/02:30am 2.5 CALM 0 0 1023.0 - 0.6 - - 10 - - - -
25/02:00am 3.3 CALM 0 0 1023.0 - 0.6 - - 10 - - - -
25/01:30am 2.4 CALM 0 0 1022.9 - 0.4 - - 10 - - - -
25/01:00am 2.5 CALM 0 0 1022.9 - 0.4 - - 10 - - - -
25/12:30am 3.2 CALM 0 0 1022.9 - 0.4 - - 10 - - - -
25/12:00am 3.5 CALM 0 0 1022.8 - 0.4 - - 10 - - - -
 
Date/Time
CST
Temp
°C
Wind Pressure Rain since
9am
mm
Weather Cloud Vis
km
Sea
Height
m
Swell
Dir  Spd
kts
Gust
kts
hPa Trend Height
m
Period
s
Dir
24/11:30pm 3.4 CALM 0 0 1022.9 - 0.4 - - 10 - - - -
24/11:00pm 4.3 CALM 0 0 1022.8 - 0.4 - - - - - - -
24/10:30pm 4.6 CALM 0 0 1022.8 - 0.4 - - 10 - - - -
24/10:00pm 5.3 CALM 0 0 1022.8 - 0.4 - - 10 - - - -
24/09:30pm 5.0 CALM 0 0 1022.7 - 0.4 - - 10 - - - -
24/09:00pm 6.0 NNW 1 3 1022.7 - 0.4 - - 10 - - - -
24/08:30pm 6.5 SSW 5 7 1022.6 - 0.4 - Partly cloudy 10 - - - -
24/08:00pm 5.4 SSW 4 5 1022.2 - 0.4 - - 10 - - - -
24/07:30pm 6.7 WNW 6 6 1021.9 - 0.4 - - 10 - - - -
24/07:00pm 7.1 W 6 7 1021.4 - 0.4 - - 10 - - - -
24/06:30pm 7.0 WNW 5 6 1021.0 - 0.4 - Partly cloudy 10 - - - -
24/06:00pm 7.9 NW 5 6 1020.5 - 0.4 - Mostly clear 10 - - - -
24/05:30pm 9.2 SW 4 7 1020.0 - 0.4 - Partly cloudy 10 - - - -
24/05:00pm 10.2 SW 8 17 1019.7 - 0.4 - Partly cloudy 10 - - - -
24/04:30pm 10.6 WSW 6 7 1019.1 - 0.2 - Partly cloudy 10 - - - -
24/04:00pm 10.8 SW 8 11 1018.7 - 0.2 - Partly cloudy 10 - - - -
24/03:30pm 10.4 SSW 11 15 1018.3 - 0.2 - Partly cloudy 10 - - - -
24/03:13pm 10.1 SSW 15 24 1018.2 - 0.2 - Partly cloudy 10 - - - -
24/03:00pm 12.0 SW 11 14 1017.8 - 0.2 - - 10 - - - -
24/02:30pm 10.6 SSW 15 23 1017.7 - 0.2 - Partly cloudy 10 - - - -
24/02:00pm 11.2 SW 16 26 1017.5 - 0.2 - Partly cloudy 10 - - - -
24/01:58pm 11.7 SW 15 26 1017.3 - 0.2 - Partly cloudy 10 - - - -
24/01:30pm 11.4 SW 11 15 1017.3 - 0.2 - Partly cloudy 10 - - - -
24/01:00pm 11.7 SW 13 17 1017.3 - 0.2 - Partly cloudy 10 - - - -
24/12:43pm 11.0 SW 18 28 1017.4 - 0.0 - Partly cloudy 10 - - - -
24/12:30pm 11.6 SW 18 26 1017.1 - 0.0 - Partly cloudy 10 - - - -
24/12:00pm 11.9 SW 15 23 1017.0 - 0.0 - Mostly clear 10 - - - -
24/11:30am 12.1 WSW 12 15 1016.8 - 0.0 - Partly cloudy 10 - - - -
24/11:00am 10.7 SW 14 22 1016.7 - 0.0 - Partly cloudy 10 - - - -
24/10:30am 11.2 WSW 15 22 1016.3 - 0.0 - Partly cloudy 10 - - - -
24/10:00am 10.6 WSW 10 13 1015.8 - 0.0 - Partly cloudy 10 - - - -
24/09:30am 9.0 W 12 17 1015.2 - 0.0 - Partly cloudy 10 - - - -
24/09:00am 8.7 WSW 14 20 1014.3 - 7.4 - Partly cloudy 10 - - - -
24/08:30am 8.2 SW 12 18 1013.9 - 7.4 - Partly cloudy 10 - - - -
24/08:00am 7.0 WSW 8 14 1013.2 - 7.4 - - 10 - - - -
24/07:30am 6.5 WSW 11 15 1012.5 - 7.4 - Partly cloudy 10 - - - -
24/07:00am 6.6 W 11 15 1011.4 - 7.4 - - 10 - - - -
24/06:30am 6.9 WSW 14 19 1011.2 - 7.4 - Partly cloudy 10 - - - -
24/06:25am 6.6 WSW 14 19 1011.3 - 7.4 - Partly cloudy 10 - - - -
24/06:14am 6.5 WSW 15 21 1011.2 - 7.2 - Partly cloudy 5 - - - -
24/06:00am 6.6 W 14 20 1010.6 - 6.8 Rain Cloudy 10 - - - -
24/05:54am 6.6 W 15 23 1010.5 - 6.6 - Partly cloudy 10 - - - -
24/05:30am 6.4 WSW 11 15 1009.6 - 6.2 - Partly cloudy 10 - - - -
24/05:00am 6.6 WSW 13 28 1009.7 - 6.2 - Partly cloudy 10 - - - -
24/04:30am 6.9 WSW 11 15 1008.7 - 6.0 - - 10 - - - -
24/04:00am 7.8 WSW 15 22 1008.2 - 6.0 - Partly cloudy 10 - - - -
24/03:52am 8.0 WSW 15 22 1008.0 - 6.0 - Partly cloudy 10 - - - -
24/03:30am 6.0 WNW 7 10 1007.9 - 6.0 - Partly cloudy 10 - - - -
24/03:00am 7.1 SW 12 18 1007.3 - 6.0 Recent precip. Mostly cloudy 10 - - - -
24/02:36am 7.8 WSW 16 31 1007.1 - 5.8 - Partly cloudy 10 - - - -
24/02:30am 7.4 WSW 15 20 1006.8 - 5.8 - - 10 - - - -
24/02:00am 6.8 SW 18 31 1006.7 - 5.8 - Partly cloudy 10 - - - -
24/01:55am 7.2 SW 16 31 1006.6 - 5.8 - Partly cloudy 10 - - - -
24/01:30am 7.3 WSW 14 19 1005.9 - 5.8 - Partly cloudy 10 - - - -
24/01:06am 7.3 WSW 15 27 1006.1 - 5.6 - Partly cloudy 10 - - - -
24/01:00am 7.1 WSW 13 17 1005.8 - 5.6 - Partly cloudy 10 - - - -
24/12:30am 7.2 W 19 29 1005.8 - 5.2 - Partly cloudy 10 - - - -
24/12:16am 7.8 W 15 34 1006.1 - 4.8 - Partly cloudy 10 - - - -
24/12:00am 7.6 W 12 16 1005.0 - 4.6 - Mostly clear 10 - - - -
 
Date/Time
CST
Temp
°C
Wind Pressure Rain since
9am
mm
Weather Cloud Vis
km
Sea
Height
m
Swell
Dir  Spd
kts
Gust
kts
hPa Trend Height
m
Period
s
Dir
23/11:39pm 8.5 WNW 15 25 1004.8 - 4.6 - Partly cloudy 10 - - - -
23/11:30pm 8.4 W 12 16 1005.1 - 4.6 - Partly cloudy 10 - - - -
23/11:03pm 8.2 W 15 25 1005.4 - 4.6 - Partly cloudy 10 - - - -
23/11:00pm 8.2 W 13 22 1005.5 - 4.6 - Partly cloudy 10 - - - -
23/10:30pm 7.8 W 11 14 1004.6 - 4.6 - - 10 - - - -
23/10:00pm 7.0 WNW 8 9 1004.7 - 4.6 - Partly cloudy 10 - - - -
23/09:30pm 6.3 WNW 7 8 1004.6 - 4.6 - - 10 - - - -
23/09:00pm 6.2 W 6 7 1004.5 - 4.6 - - 10 - - - -
23/08:30pm 6.4 WNW 7 8 1004.1 - 4.6 - - 10 - - - -
23/08:00pm 7.1 W 10 15 1003.9 - 4.6 - Partly cloudy 10 - - - -
23/07:30pm 7.6 SW 13 19 1004.1 - 4.4 - Partly cloudy 10 - - - -
23/07:25pm 7.6 WSW 15 21 1004.0 - 4.4 - Partly cloudy 10 - - - -
23/07:00pm 6.1 WNW 5 8 1003.2 - 4.4 - - 10 - - - -
23/06:30pm 7.0 WNW 8 11 1002.9 - 4.4 - Partly cloudy 10 - - - -
23/06:03pm 8.9 W 15 27 1003.5 - 4.0 - Partly cloudy 10 - - - -
23/06:00pm 9.0 W 12 23 1003.3 - 4.0 - Cloudy 10 - - - -
23/05:30pm 9.2 WNW 7 8 1002.4 - 4.0 - Partly cloudy 10 - - - -
23/05:00pm 9.0 NW 7 9 1001.9 - 4.0 - Partly cloudy 10 - - - -
23/04:30pm 9.1 WNW 4 5 1001.8 - 4.0 - Partly cloudy 10 - - - -
23/04:00pm 9.5 W 7 9 1001.7 - 4.0 - Partly cloudy 10 - - - -
23/03:30pm 9.7 W 14 25 1001.6 - 4.0 - Partly cloudy 7 - - - -
23/03:00pm 11.6 W 8 11 1001.0 - 3.4 - Cloudy 10 - - - -
23/02:30pm 11.6 W 9 14 1001.0 - 3.4 - Partly cloudy 10 - - - -
23/02:00pm 11.6 WSW 9 13 1000.8 - 3.4 - Partly cloudy 10 - - - -
23/01:30pm 11.1 W 11 15 1001.2 - 3.4 - Partly cloudy 10 - - - -
23/01:00pm 11.5 W 8 11 1000.8 - 3.4 - Partly cloudy 10 - - - -
23/12:30pm 10.3 W 11 16 1001.7 - 3.4 - Partly cloudy 10 - - - -
23/12:00pm 10.4 W 13 20 1002.0 - 3.2 Rain Cloudy 10 - - - -
23/11:30am 11.3 W 8 11 1002.2 - 2.8 - Partly cloudy 10 - - - -
23/11:00am 11.3 WNW 6 7 1002.0 - 2.8 - Partly cloudy 10 - - - -
23/10:30am 10.9 W 6 8 1002.4 - 2.8 - Partly cloudy 10 - - - -
23/10:00am 10.7 W 8 11 1002.3 - 2.4 - Partly cloudy 10 - - - -
23/09:52am 10.7 W 8 11 1002.4 - 2.2 - Partly cloudy 10 - - - -
23/09:30am 10.6 WNW 7 10 1002.1 - 2.0 - Partly cloudy 10 - - - -
23/09:03am 10.9 WSW 19 31 1001.5 - 0.4 - Partly cloudy 8 - - - -
23/09:00am 11.1 WSW 20 31 1001.4 - 19.0 Rain Mostly cloudy 8 - - - -
23/08:57am 11.3 W 23 37 1001.4 - 18.6 - Partly cloudy 8 - - - -
23/08:51am 12.2 WNW 26 37 1001.2 - 18.4 - Partly cloudy 4 - - - -
23/08:32am 13.1 NW 23 36 999.9 - 16.4 - Partly cloudy 5 - - - -
23/08:30am 13.1 NW 23 36 999.9 - 16.4 - Partly cloudy 6 - - - -
23/08:06am 13.2 NNW 20 30 999.9 - 15.6 - Partly cloudy 9 - - - -
23/08:00am 13.3 NNW 19 27 1000.0 - 15.6 - Partly cloudy 10 - - - -
23/07:33am 13.1 NW 18 28 1000.2 - 15.4 - Partly cloudy 10 - - - -
23/07:30am 13.2 NW 19 26 1000.3 - 15.4 - Partly cloudy 10 - - - -
23/07:07am 13.5 NNW 17 27 1000.6 - 15.4 - Partly cloudy 10 - - - -
23/07:00am 13.5 NNW 16 24 1000.6 - 15.4 - Partly cloudy 10 - - - -
23/06:30am 12.9 NW 15 27 1000.9 - 15.4 - Partly cloudy 10 - - - -
23/06:24am 13.3 NNW 16 27 1000.7 - 15.4 - Partly cloudy 10 - - - -
23/06:00am 13.3 NNW 17 24 1001.0 - 15.2 Recent precip. Cloudy 10 - - - -
23/05:30am 13.0 NW 13 19 1001.5 - 15.2 - Partly cloudy 10 - - - -
23/05:00am 13.0 NW 16 21 1001.7 - 14.8 - Partly cloudy 10 - - - -
23/04:41am 13.0 NW 15 26 1002.1 - 14.8 - Partly cloudy 10 - - - -
23/04:30am 12.8 NW 14 22 1002.1 - 14.8 - Partly cloudy 10 - - - -
23/04:19am 12.9 NW 17 25 1002.3 - 14.8 - Partly cloudy 10 - - - -
23/04:02am 13.0 NW 16 22 1002.6 - 14.4 - Partly cloudy 8 - - - -
23/04:00am 13.1 NW 16 22 1002.6 - 14.4 - Partly cloudy 9 - - - -
23/03:30am 13.1 NW 17 23 1002.9 - 14.2 - Partly cloudy 8 - - - -
23/03:00am 13.4 NW 16 23 1003.3 - 13.6 - Cloudy 10 - - - -
23/02:30am 13.3 NW 17 23 1003.5 - 13.6 - Partly cloudy 10 - - - -
23/02:13am 13.1 NW 16 26 1003.7 - 13.6 - Partly cloudy 10 - - - -
23/02:00am 13.1 NW 20 27 1003.9 - 13.6 - Partly cloudy 10 - - - -
23/01:54am 13.0 NW 19 27 1004.0 - 13.6 - Partly cloudy 10 - - - -
23/01:30am 12.9 NW 18 29 1004.4 - 12.6 - Partly cloudy 5 - - - -
23/01:27am 12.9 NW 17 29 1004.5 - 12.4 - Partly cloudy 5 - - - -
23/01:26am 13.0 NW 17 29 1004.5 - 12.2 - Partly cloudy 7 - - - -
23/01:00am 12.8 NW 17 26 1004.7 - 12.0 - Partly cloudy 10 - - - -
23/12:43am 13.0 NW 19 29 1005.1 - 11.8 - Partly cloudy 5 - - - -
23/12:41am 13.1 NW 18 29 1005.0 - 11.4 - Partly cloudy 7 - - - -
23/12:30am 13.2 NW 15 22 1005.1 - 11.4 - Partly cloudy 10 - - - -
23/12:29am 13.1 NW 14 22 1005.1 - 11.4 - Partly cloudy 10 - - - -
23/12:10am 13.1 NW 15 22 1005.5 - 11.0 - Partly cloudy 5 - - - -
23/12:04am 13.0 NW 13 20 1005.6 - 10.4 - Partly cloudy 6 - - - -
23/12:00am 12.9 NW 13 21 1005.7 - 10.2 Rain Cloudy 7 - - - -
 
Date/Time
CST
Temp
°C
Wind Pressure Rain since
9am
mm
Weather Cloud Vis
km
Sea
Height
m
Swell
Dir  Spd
kts
Gust
kts
hPa Trend Height
m
Period
s
Dir
22/11:47pm 12.9 NW 15 23 1005.9 - 9.8 - Partly cloudy 5 - - - -
22/11:39pm 12.6 NW 14 18 1006.1 - 9.0 - Partly cloudy 8 - - - -
22/11:32pm 12.4 NW 14 21 1006.1 - 8.6 - Partly cloudy 10 - - - -
22/11:30pm 12.4 NW 14 21 1006.1 - 8.6 - Partly cloudy 10 - - - -
22/11:25pm 12.5 NW 14 21 1006.2 - 8.6 - Partly cloudy 8 - - - -
22/11:01pm 12.9 NW 15 21 1006.6 - 3.4 - Partly cloudy 5 - - - -
22/11:00pm 13.0 NW 15 23 1006.6 - 3.2 - Partly cloudy 7 - - - -
22/10:30pm 13.1 NW 15 23 1006.6 - 2.2 - Partly cloudy 10 - - - -
22/10:00pm 13.2 NW 14 21 1006.7 - 1.8 - Partly cloudy 10 - - - -
22/09:30pm 12.7 NW 11 16 1007.1 - 1.6 - Partly cloudy 10 - - - -
22/09:00pm 12.6 NW 14 21 1007.2 - 1.6 Rain Partly cloudy 10 - - - -
22/08:30pm 12.4 NW 16 22 1007.4 - 1.2 - Partly cloudy 10 - - - -
22/08:00pm 13.0 NW 11 15 1007.4 - 1.0 - - 10 - - - -
22/07:30pm 12.4 NNW 9 14 1007.5 - 1.0 - Partly cloudy 10 - - - -
22/07:00pm 12.4 NW 13 20 1007.6 - 1.0 - Partly cloudy 10 - - - -
22/06:30pm 12.4 NW 14 23 1007.7 - 1.0 - Partly cloudy 10 - - - -
22/06:00pm 12.5 NNW 7 10 1007.4 - 0.2 Recent precip. - 10 - - - -
22/05:30pm 12.6 NW 11 19 1007.4 - 0.2 - Partly cloudy 10 - - - -
22/05:00pm 14.1 NW 15 21 1007.5 - 0.0 - Partly cloudy 10 - - - -
22/04:30pm 14.2 NW 14 21 1007.6 - 0.0 - Partly cloudy 10 - - - -
22/04:00pm 14.9 NW 17 24 1007.7 - 0.0 - Partly cloudy 10 - - - -
22/03:31pm 15.0 WNW 15 26 1007.7 - 0.0 - Partly cloudy 10 - - - -
22/03:30pm 15.0 WNW 15 24 1007.7 - 0.0 - Partly cloudy 10 - - - -
22/03:00pm 13.8 WNW 18 30 1007.8 - 0.0 - Cloudy 10 - - - -
22/02:36pm 16.3 WNW 17 28 1007.6 - 0.0 - Partly cloudy 10 - - - -
22/02:30pm 16.1 WNW 17 23 1007.5 - 0.0 - Partly cloudy 10 - - - -
22/02:00pm 14.6 WNW 18 29 1007.9 - 0.0 - Partly cloudy 10 - - - -
22/01:53pm 14.8 WNW 18 29 1007.9 - 0.0 - Partly cloudy 10 - - - -
22/01:30pm 16.1 WNW 16 23 1007.9 - 0.0 - Partly cloudy 10 - - - -
22/01:00pm 16.0 WNW 14 18 1008.2 - 0.0 - Partly cloudy 10 - - - -
22/12:30pm 16.5 WNW 16 22 1008.4 - 0.0 - Partly cloudy 10 - - - -
22/12:00pm 16.8 WNW 14 19 1008.8 - 0.0 - Mostly cloudy 10 - - - -
22/11:30am 16.5 WNW 14 22 1009.0 - 0.0 - Partly cloudy 10 - - - -
22/11:00am 16.1 WNW 12 17 1009.2 - 0.0 - - 10 - - - -
22/10:30am 15.5 WNW 9 13 1009.3 - 0.0 - - 10 - - - -
22/10:00am 14.4 W 8 14 1009.2 - 0.0 - - 10 - - - -
22/09:30am 13.6 W 4 11 1009.3 - 0.0 - - 10 - - - -

Other Formats:

Comma delimited format used in spreadsheet applications
http://www.bom.gov.au/fwo/IDS60701/IDS60701.95807.axf

JavaScript Object Notation format (JSON) in row-major order
http://www.bom.gov.au/fwo/IDS60701/IDS60701.95807.json